createdAt,value
2023-03-12T00:02:49.446Z,9.40
2023-03-12T00:07:52.903Z,6.90
2023-03-12T00:12:55.659Z,10.30
2023-03-12T00:17:58.181Z,7.90
2023-03-12T00:23:00.704Z,5.60
2023-03-12T00:28:03.173Z,9.30
2023-03-12T00:33:05.624Z,8.60
2023-03-12T00:38:08.464Z,7.40
2023-03-12T00:43:11.368Z,9.20
2023-03-12T00:48:13.914Z,14.40
2023-03-12T00:53:16.422Z,9.40
2023-03-12T00:58:18.987Z,10.60
2023-03-12T01:03:22.412Z,6.00
2023-03-12T01:08:25.564Z,7.80
2023-03-12T01:13:28.399Z,10.60
2023-03-12T01:18:30.894Z,7.90
2023-03-12T01:23:33.454Z,9.30
2023-03-12T01:28:35.943Z,8.70
2023-03-12T01:33:38.435Z,8.00
2023-03-12T01:38:40.861Z,7.30
2023-03-12T01:43:43.595Z,7.80
2023-03-12T01:48:50.203Z,7.40
2023-03-12T01:53:58.006Z,8.50
2023-03-12T01:59:05.760Z,6.20
2023-03-12T02:04:08.799Z,8.80
2023-03-12T02:09:12.639Z,7.80
2023-03-12T02:14:15.344Z,8.20
2023-03-12T02:19:48.722Z,7.40
2023-03-12T02:25:03.814Z,8.50
2023-03-12T02:30:08.208Z,8.10
2023-03-12T02:35:11.904Z,8.20
2023-03-12T02:40:22.980Z,9.50
2023-03-12T02:50:28.851Z,5.90
2023-03-12T02:55:31.999Z,6.90
2023-03-12T03:00:34.742Z,3.60
2023-03-12T03:05:37.739Z,6.30
2023-03-12T03:10:40.289Z,6.70
2023-03-12T03:15:42.798Z,4.40
2023-03-12T03:20:45.307Z,4.90
2023-03-12T03:25:47.777Z,6.50
2023-03-12T03:30:53.907Z,2.80
2023-03-12T03:35:59.395Z,4.50
2023-03-12T03:41:02.710Z,3.70
2023-03-12T03:46:06.300Z,4.10
2023-03-12T03:51:11.082Z,2.50
2023-03-12T03:56:15.666Z,2.10
2023-03-12T04:01:19.369Z,3.10
2023-03-12T04:06:22.438Z,1.70
2023-03-12T04:11:25.809Z,2.50
2023-03-12T04:16:28.534Z,3.70
2023-03-12T04:21:31.180Z,2.30
2023-03-12T04:26:33.698Z,3.30
2023-03-12T04:31:36.255Z,5.60
2023-03-12T04:36:38.923Z,2.20
2023-03-12T04:41:41.398Z,2.80
2023-03-12T04:46:43.936Z,3.00
2023-03-12T04:51:46.586Z,3.10
2023-03-12T04:56:50.131Z,2.10
2023-03-12T05:01:52.832Z,3.10
2023-03-12T05:06:55.923Z,1.90
2023-03-12T05:11:58.912Z,4.90
2023-03-12T05:17:01.498Z,2.30
2023-03-12T05:22:04.062Z,4.70
2023-03-12T05:27:08.284Z,2.20
2023-03-12T05:32:13.353Z,2.20
2023-03-12T05:37:16.031Z,2.50
2023-03-12T05:42:18.572Z,1.80
2023-03-12T05:47:23.141Z,2.40
2023-03-12T05:52:25.645Z,3.00
2023-03-12T05:57:28.202Z,4.20
2023-03-12T06:02:30.770Z,1.70
2023-03-12T06:07:34.527Z,1.70
2023-03-12T06:12:37.037Z,2.20
2023-03-12T06:17:39.626Z,2.20
2023-03-12T06:22:42.506Z,2.10
2023-03-12T06:27:45.030Z,2.50
2023-03-12T06:32:48.722Z,3.90
2023-03-12T06:37:51.335Z,2.30
2023-03-12T06:42:53.958Z,3.10
2023-03-12T06:47:56.436Z,3.70
2023-03-12T06:52:58.916Z,3.60
2023-03-12T06:58:04.219Z,3.60
2023-03-12T07:03:06.910Z,3.20
2023-03-12T07:08:10.152Z,4.90
2023-03-12T07:13:13.357Z,3.90
2023-03-12T07:18:16.109Z,2.40
2023-03-12T07:23:19.184Z,5.20
2023-03-12T07:28:22.873Z,4.70
2023-03-12T07:33:25.792Z,2.80
2023-03-12T07:38:28.633Z,3.80
2023-03-12T07:43:31.611Z,2.20
2023-03-12T07:48:34.374Z,3.80
2023-03-12T07:53:37.052Z,4.90
2023-03-12T07:58:40.105Z,3.00
2023-03-12T08:03:43.232Z,2.70
2023-03-12T08:08:46.704Z,3.00
2023-03-12T08:13:49.851Z,4.40
2023-03-12T08:18:52.729Z,3.90
2023-03-12T08:23:55.243Z,3.90
2023-03-12T08:29:00.174Z,3.50
2023-03-12T08:34:03.142Z,4.60
2023-03-12T08:39:06.496Z,3.70
2023-03-12T08:44:09.032Z,3.20
2023-03-12T08:49:11.876Z,4.90
2023-03-12T08:54:15.048Z,2.10
2023-03-12T08:59:18.570Z,3.50
2023-03-12T09:04:21.263Z,3.20
2023-03-12T09:09:23.990Z,4.70
2023-03-12T09:15:01.962Z,3.70
2023-03-12T09:19:49.489Z,4.50
2023-03-12T09:24:52.118Z,5.90
2023-03-12T09:30:00.479Z,5.10
2023-03-12T09:35:06.751Z,3.90
2023-03-12T09:40:17.857Z,4.60
2023-03-12T09:45:24.682Z,3.40
2023-03-12T09:50:45.853Z,3.00
2023-03-12T10:01:04.320Z,3.20
2023-03-12T10:06:12.935Z,5.70
2023-03-12T10:11:43.596Z,17.30
2023-03-12T10:17:00.320Z,4.60
2023-03-12T10:22:28.735Z,4.90
2023-03-12T10:27:37.005Z,8.50
2023-03-12T10:32:45.814Z,9.80
2023-03-12T10:37:52.017Z,6.00
2023-03-12T10:42:55.513Z,7.60
2023-03-12T10:48:06.274Z,4.50
2023-03-12T10:53:31.810Z,5.20
2023-03-12T10:58:38.035Z,3.90
2023-03-12T11:03:42.114Z,5.70
2023-03-12T11:09:17.095Z,5.60
2023-03-12T11:14:23.060Z,6.70
2023-03-12T11:19:33.225Z,6.90
2023-03-12T11:24:36.019Z,4.70
2023-03-12T11:29:43.466Z,3.60
2023-03-12T11:34:49.923Z,4.90
2023-03-12T11:40:09.767Z,2.80
2023-03-12T11:45:40.794Z,5.30
2023-03-12T11:51:15.484Z,3.90
2023-03-12T11:56:36.202Z,4.30
2023-03-12T12:01:57.531Z,6.80
2023-03-12T12:12:52.556Z,7.50
2023-03-12T12:18:11.173Z,3.60
2023-03-12T12:23:42.722Z,5.40
2023-03-12T12:28:57.118Z,4.90
2023-03-12T12:34:05.434Z,3.30
2023-03-12T12:39:25.557Z,5.30
2023-03-12T12:44:35.704Z,4.50
2023-03-12T12:49:48.772Z,3.80
2023-03-12T12:55:07.532Z,2.70
2023-03-12T13:00:27.386Z,3.80
2023-03-12T13:05:36.114Z,5.40
2023-03-12T13:10:48.939Z,3.10
2023-03-12T13:16:40.068Z,3.80
2023-03-12T13:22:08.830Z,5.60
2023-03-12T13:27:27.337Z,5.90
2023-03-12T13:32:59.418Z,6.50
2023-03-12T13:38:05.774Z,4.40
2023-03-12T13:43:08.234Z,5.70
2023-03-12T13:48:22.010Z,12.80
2023-03-12T13:53:35.637Z,12.20
2023-03-12T13:58:47.988Z,13.30
2023-03-12T14:04:00.299Z,4.40
2023-03-12T14:09:25.161Z,6.00
2023-03-12T14:14:57.644Z,7.00
2023-03-12T14:20:20.771Z,5.50
2023-03-12T14:25:42.598Z,5.90
2023-03-12T14:31:17.261Z,8.20
2023-03-12T14:36:22.913Z,5.20
2023-03-12T14:41:41.817Z,6.20
2023-03-12T14:46:57.047Z,6.20
2023-03-12T14:51:59.758Z,8.40
2023-03-12T14:57:02.403Z,11.70
2023-03-12T15:02:14.571Z,10.70
2023-03-12T15:07:23.857Z,10.70
2023-03-12T15:12:31.960Z,11.80
2023-03-12T15:17:35.447Z,10.00
2023-03-12T15:22:38.608Z,8.10
2023-03-12T15:27:41.350Z,10.70
2023-03-12T15:33:11.334Z,7.00
2023-03-12T15:38:16.596Z,5.50
2023-03-12T15:43:22.713Z,9.50
2023-03-12T15:48:41.152Z,9.50
2023-03-12T15:53:43.688Z,7.70
2023-03-12T15:58:46.729Z,8.40
2023-03-12T16:03:49.688Z,6.20
2023-03-12T16:08:59.691Z,6.10
2023-03-12T16:14:24.684Z,5.40
2023-03-12T16:19:29.601Z,7.10
2023-03-12T16:24:32.194Z,13.10
2023-03-12T16:29:38.202Z,16.90
2023-03-12T16:34:41.459Z,17.30
2023-03-12T16:39:46.256Z,7.70
2023-03-12T16:44:48.966Z,4.00
2023-03-12T16:49:51.700Z,5.40
2023-03-12T16:54:54.327Z,4.60
2023-03-12T16:59:57.547Z,6.70
2023-03-12T17:05:00.344Z,6.40
2023-03-12T17:10:03.215Z,5.30
2023-03-12T17:15:16.577Z,11.80
2023-03-12T17:20:21.432Z,8.90
2023-03-12T17:25:25.838Z,8.90
2023-03-12T17:30:30.498Z,7.70
2023-03-12T17:35:33.723Z,4.70
2023-03-12T17:40:40.728Z,6.50
2023-03-12T17:45:43.401Z,9.10
2023-03-12T17:50:45.938Z,9.00
2023-03-12T17:55:48.476Z,8.30
2023-03-12T18:00:51.229Z,7.70
2023-03-12T18:05:53.838Z,8.70
2023-03-12T18:10:56.818Z,10.60
2023-03-12T18:15:59.848Z,9.00
2023-03-12T18:21:02.731Z,7.40
2023-03-12T18:26:05.700Z,10.90
2023-03-12T18:31:08.815Z,12.70
2023-03-12T18:36:11.425Z,8.30
2023-03-12T18:41:14.557Z,14.00
2023-03-12T18:46:18.996Z,13.00
2023-03-12T18:51:22.085Z,8.90
2023-03-12T18:56:25.153Z,9.10
2023-03-12T19:01:27.786Z,10.20
2023-03-12T19:06:40.793Z,8.80
2023-03-12T19:11:50.877Z,10.00
2023-03-12T19:16:53.724Z,8.70
2023-03-12T19:21:57.298Z,10.80
2023-03-12T19:26:59.750Z,11.20
2023-03-12T19:32:02.382Z,14.80
2023-03-12T19:37:04.880Z,10.90
2023-03-12T19:42:07.408Z,10.30
2023-03-12T19:47:10.104Z,11.50
2023-03-12T19:52:12.603Z,8.40
2023-03-12T19:57:15.078Z,9.50
2023-03-12T20:02:18.003Z,16.30
2023-03-12T20:07:20.572Z,10.40
2023-03-12T20:12:23.077Z,12.00
2023-03-12T20:17:25.588Z,10.80
2023-03-12T20:22:28.046Z,9.90
2023-03-12T20:27:31.106Z,8.00
2023-03-12T20:32:34.106Z,7.30
2023-03-12T20:37:36.910Z,10.50
2023-03-12T20:42:40.668Z,7.70
2023-03-12T20:47:43.231Z,10.60
2023-03-12T20:52:45.712Z,11.70
2023-03-12T20:57:48.385Z,7.80
2023-03-12T21:02:50.944Z,11.90
2023-03-12T21:07:53.909Z,7.50
2023-03-12T21:12:57.445Z,10.50
2023-03-12T21:17:59.930Z,9.60
2023-03-12T21:23:02.474Z,9.30
2023-03-12T21:28:07.279Z,5.30
2023-03-12T21:33:09.804Z,8.20
2023-03-12T21:38:12.361Z,7.80
2023-03-12T21:43:14.830Z,9.00
2023-03-12T21:48:17.310Z,8.20
2023-03-12T21:53:23.764Z,10.80
2023-03-12T21:58:27.501Z,10.60
2023-03-12T22:03:30.211Z,8.70
2023-03-12T22:08:33.744Z,7.70
2023-03-12T22:13:36.655Z,7.80
2023-03-12T22:18:41.570Z,7.80
2023-03-12T22:23:44.145Z,8.60
2023-03-12T22:28:52.429Z,11.80
2023-03-12T22:33:56.578Z,12.90
2023-03-12T22:38:59.067Z,21.90
2023-03-12T22:44:07.233Z,16.50
2023-03-12T22:49:09.693Z,26.50
2023-03-12T22:54:12.169Z,27.50
2023-03-12T22:59:14.655Z,23.90
2023-03-12T23:04:17.114Z,22.00
2023-03-12T23:09:19.999Z,26.40
2023-03-12T23:14:22.790Z,20.90
2023-03-12T23:19:26.074Z,21.30
2023-03-12T23:24:31.624Z,20.80
2023-03-12T23:29:35.062Z,19.90
2023-03-12T23:34:37.590Z,20.10
2023-03-12T23:39:53.458Z,31.10
2023-03-12T23:44:56.731Z,29.90
2023-03-12T23:49:59.296Z,33.70
2023-03-12T23:55:01.758Z,23.50
